Terminal Aerodrome Forecast
Issued by NWS Tuscon, AZ

Home | Current Version | Previous Version | Text Only | Print | Product List | Glossary On
Versions: 1 2 3 4 5 6 7 8 9 10 11 12
000
FTUS45 KTWC 281100
TAFTUS
TAF
KTUS 281120Z 2812/2912 13012KT P6SM SKC
     FM281400 13013G23KT P6SM SKC
     FM281900 12008KT P6SM SKC
     FM282200 32006KT P6SM SKC
     FM290700 14007KT P6SM SKC=

USA.gov is the U.S. government's official web portal to all federal, state and local government web resources and services.